Wiccopee, New York
Current Conditions -  °F | °C
As of 4:53 PM on Monday 24 Nov 2014 (Local Time) from KPOU Reporting Station
Few Clouds Few Clouds  
Wind Chill: 67°   Ceiling: Unl
Heat Index: 67°   Visibility: 10mi
Dew Point: 57°   Wind: 9mph
Humidity: 70%   Direction: 180°S
Pressure: 29.56"   Gusts: NA
Location:  41.562°N, 73.7865°W
Report Text: KPOU 242153Z 18008KT 10SM FEW040 19/14 A2956 RMK AO2 SLP008 T01940139
Loading
Personal Weather Stations






























Interactive Weather Map New forecast layout! Learn more

10-Day Weather Forecast

Advertisements
Track Severe Weather on mobile